Hundvaag 1 weather for Sep 2009
Month no. 267
Obs.
Da.
Temp. Dew Point Precip. Wind
Speed
Wind gusts Cloud cover Press. Humidity Wind dir. Sunny OPT
01.09.2009 17,2 14,4 5,3 6,9 14,5 2 1005,4 84,0 157,5   70,0 %
02.09.2009 12,6 10,5 24,0 5,6 6,9 2 1002,3 87,0 157,5   50,0 %
03.09.2009 13,4 9,7 12,3 2,3 2,7 2 1003,0 78,0 67,5   62,5 %
04.09.2009 12,4 10,4 5,7 0,0 0,0 7 985,7 88,0 112,5 1 80,0 %
05.09.2009 13,8 10,8 0,1 14,8 15,1 8 1000,9 82,0 292,5 1 77,5 %
06.09.2009 11,8 9,3 7,0 7,4 7,4 0 1013,8 85,0 112,5 1 55,0 %
07.09.2009 13,2 11,3 2,4 5,6 13,2 0 1013,8 88,0 157,5 1 65,0 %
08.09.2009 13,3 10,8 7,0 9,3 9,3 2 1018,2 85,0 135,0   62,5 %
09.09.2009 13,6 10,8 1,5 5,6 9,3 3 1019,5 83,0 180,0 1 72,5 %
10.09.2009 12,3 10,0 0,2 1,9 1,9 6 1034,8 86,0 270,0 1 80,0 %
11.09.2009 12,9 10,9 0,3 1,2 1,2 3 1037,9 88,0 270,0 1 75,0 %
12.09.2009 12,6 10,5 0,6 0,0 0,0 0 1031,0 87,0 157,5   67,5 %
13.09.2009 11,9 9,8 1,0 20,4 20,9 9 1026,6 87,0 270,0 1 75,0 %
14.09.2009 12,0 10,6 0,0 0,0 0,0 10 1034,2 91,0 112,5 1 90,0 %
15.09.2009 12,6 9,1 0,0 0,0 2,1 2 1034,4 79,0 135,0 1 72,5 %
16.09.2009 12,0 8,7 0,5 13,0 13,0 3 1024,9 80,0 270,0 1 65,0 %
17.09.2009 10,9 8,1 0,0 7,4 7,4 2 1025,6 83,0 337,5 1 65,0 %
18.09.2009 11,8 9,2 0,0 3,7 4,0 3 1025,6 84,0 292,5 1 70,0 %
19.09.2009 12,1 8,9 0,0 3,7 4,0 2 1022,2 81,0 90,0 1 67,5 %
20.09.2009 13,9 11,4 2,3 3,7 5,0 1 1016,8 85,0 202,5 1 67,5 %
21.09.2009 12,9 10,4 1,0 13,4 13,4 0 1016,5 85,0 135,0   60,0 %
22.09.2009 14,3 12,8 17,0 18,5 18,5 0 1009,4 91,0 180,0   42,5 %
23.09.2009 11,1 8,5 8,0 1,9 1,9 0 1013,8 84,0 225,0 1 60,0 %
24.09.2009 10,9 8,5 12,2 31,5 32,3 2 1014,1 85,0 270,0 1 40,0 %
25.09.2009 13,9 12,1 2,2 0,0 0,0 0 1019,2 89,0 247,5   67,5 %
26.09.2009 13,5 11,7 9,0 3,7 3,7 0 1022,2 89,0 157,5   57,5 %
27.09.2009 12,9 11,1 0,0 5,6 5,6 1 1020,5 89,0 157,5   67,5 %
28.09.2009 11,0 7,1 7,0 20,4 20,4 1 1015,5 77,0 270,0   50,0 %
29.09.2009 7,4 3,8 4,3 13,0 13,0 6 1016,5 78,0 292,5 1 65,0 %
30.09.2009 7,2 4,7 3,0 0,0 0,0 2 1017,8 84,0 180,0   62,5 %
                       
Avrg/Sum 12,4 9,9 133,9 7,4 8,2 2,6 1018,1 84,7 196,5 18 65,4 %